Reklama

Seznam meteostanic a jejich METAR

Vyhledat místa podle abecedy:
A B C D E F G H I J K L M N O P Q R S T U V W X Y Z

Filtrovat:

ID stanice:
a/nebo
Název místa (fulltext):
 
Místo (ID)Naposledy načteno 
Brno - Tuřany (Brno/Tu) 21.01.2020 10:00 UTC Zobrazit data
Místo: Brno - Tuřany
Teplota: 1 °C (pocitová: -4.6 °C)
Vítr: 2 m/s z(e) 360°
Počasí: zataženo
Dohlednost: 13 km
Zákl. oblačnosti: 1/8 360 m;7/8 480 m
Vlhkost: 87%
Červená - Opava (Cervena/uL) 21.01.2020 01:00 UTC Zobrazit data
Místo: Červená - Opava
Teplota: -3 °C (pocitová: -11.3 °C)
Vítr: 3 m/s z(e) 250°
Počasí: zataženo
Dohlednost: 3400 m
Zákl. oblačnosti: 8/8 60 m
Vlhkost: 100%
České Budějovice (C.Budej/po) 21.01.2020 10:00 UTC Zobrazit data
Místo: České Budějovice
Teplota: N/A °C (pocitová: N/A °C)
Vítr: 2 m/s z(e) 140°
Počasí: skoro zataženo
Dohlednost: 18 km
Zákl. oblačnosti: 7/8 240 m
Vlhkost: N/A%
Cheb (Cheb) 21.01.2020 05:00 UTC Zobrazit data
Místo: Cheb
Teplota: -4 °C (pocitová: -9.2 °C)
Vítr: 1 m/s z(e) 0°
Počasí: mlha
Dohlednost: 400 m
Zákl. oblačnosti: 8/8 30 m
Vlhkost: 100%
Chotusice - Čáslav (Caslav) 21.01.2020 10:00 UTC Zobrazit data
Místo: Chotusice - Čáslav
Teplota: 0 °C (pocitová: -7.3 °C)
Vítr: 3 m/s z(e) 160°
Počasí: zataženo
Dohlednost: 9 km
Zákl. oblačnosti: 7/8 240 m
Vlhkost: 87%
Churáňov (Churanov) 21.01.2020 10:00 UTC Zobrazit data
Místo: Churáňov
Teplota: 3 °C (pocitová: -0.6 °C)
Vítr: 1 m/s z(e) 260°
Počasí: slunečno
Dohlednost: 45 km
Zákl. oblačnosti: N/A
Vlhkost: 81%
Doksany - Litoměřice (Doksany) 21.01.2020 05:00 UTC Zobrazit data
Místo: Doksany - Litoměřice
Teplota: -6 °C (pocitová: 9.4 °C)
Vítr: 0 m/s z(e) 0°
Počasí: mlha
Dohlednost: 100 m
Zákl. oblačnosti: 8/8 30 m
Vlhkost: 100%
Dukovany (Dukovany) 21.01.2020 10:00 UTC Zobrazit data
Místo: Dukovany
Teplota: 0 °C (pocitová: -5.9 °C)
Vítr: 2 m/s z(e) 350°
Počasí: zataženo
Dohlednost: 12 km
Zákl. oblačnosti: 8/8 300 m
Vlhkost: 87%
Holešov (Holesov) 21.01.2020 10:00 UTC Zobrazit data
Místo: Holešov
Teplota: 1 °C (pocitová: -6 °C)
Vítr: 3 m/s z(e) 250°
Počasí: skoro zataženo
Dohlednost: 25 km
Zákl. oblačnosti: 7/8 450 m
Vlhkost: 81%
Kadaň - Tušimice (Tusimice) 21.01.2020 10:00 UTC Zobrazit data
Místo: Kadaň - Tušimice
Teplota: 1 °C (pocitová: -3.1 °C)
Vítr: 1 m/s z(e) 0°
Počasí: skorojasno
Dohlednost: 30 km
Zákl. oblačnosti: 1/8 8100 m
Vlhkost: 87%
Karlovy Vary (K.Vary) 21.01.2020 10:00 UTC Zobrazit data
Místo: Karlovy Vary
Teplota: 0 °C (pocitová: -5.9 °C)
Vítr: 2 m/s z(e) 210°
Počasí: skorojasno
Dohlednost: 50 km
Zákl. oblačnosti: 2/8 6000 m
Vlhkost: 80%
Kocelovice (Kocelovice) 21.01.2020 10:00 UTC Zobrazit data
Místo: Kocelovice
Teplota: -2 °C (pocitová: -10 °C)
Vítr: 3 m/s z(e) 150°
Počasí: zataženo
Dohlednost: 9 km
Zákl. oblačnosti: 8/8 150 m
Vlhkost: 100%
Kopisty (Kopisty) 21.01.2020 09:00 UTC Zobrazit data
Místo: Kopisty
Teplota: -3 °C (pocitová: 11.3 °C)
Vítr: 0 m/s z(e) 0°
Počasí: mlha
Dohlednost: 200 m
Zákl. oblačnosti: 1/8 900 m
Vlhkost: 100%
Kostelní Myslová (K.Myslova) 21.01.2020 10:00 UTC Zobrazit data
Místo: Kostelní Myslová
Teplota: -2 °C (pocitová: -8.5 °C)
Vítr: 2 m/s z(e) 0°
Počasí: zataženo
Dohlednost: 9 km
Zákl. oblačnosti: 8/8 90 m
Vlhkost: 100%
Křešín - Kramolín (Kramolin) 21.01.2020 10:00 UTC Zobrazit data
Místo: Křešín - Kramolín
Teplota: -3 °C (pocitová: -9.8 °C)
Vítr: 2 m/s z(e) 190°
Počasí: zataženo
Dohlednost: 4500 m
Zákl. oblačnosti: 8/8 60 m
Vlhkost: 93%
Kuchařovice - Znojmo (Kucharovic) 21.01.2020 10:00 UTC Zobrazit data
Místo: Kuchařovice - Znojmo
Teplota: 0 °C (pocitová: -4.3 °C)
Vítr: 1 m/s z(e) 0°
Počasí: skoro zataženo
Dohlednost: 10 km
Zákl. oblačnosti: 1/8 450 m;7/8 570 m
Vlhkost: 93%
Liberec (Liberec) 21.01.2020 10:00 UTC Zobrazit data
Místo: Liberec
Teplota: 1 °C (pocitová: -4.6 °C)
Vítr: 2 m/s z(e) 120°
Počasí: skorojasno
Dohlednost: 28 km
Zákl. oblačnosti: 2/8 6900 m
Vlhkost: 75%
Luká (Luka) 21.01.2020 10:00 UTC Zobrazit data
Místo: Luká
Teplota: -2 °C (pocitová: -8.5 °C)
Vítr: 2 m/s z(e) 230°
Počasí: zataženo
Dohlednost: 6 km
Zákl. oblačnosti: 8/8 60 m
Vlhkost: 86%
Lysá Hora (Lysa Hora) 21.01.2020 10:00 UTC Zobrazit data
Místo: Lysá Hora
Teplota: -2 °C (pocitová: -13.2 °C)
Vítr: 7 m/s z(e) 290°
Počasí: skorojasno
Dohlednost: 75 km
Zákl. oblačnosti: 2/8 6000 m
Vlhkost: 80%
Milešovka (Milesovka) 21.01.2020 10:00 UTC Zobrazit data
Místo: Milešovka
Teplota: 0 °C (pocitová: -8.4 °C)
Vítr: 4 m/s z(e) 220°
Počasí: skorojasno
Dohlednost: 30 km
Zákl. oblačnosti: 2/8 9000 m
Vlhkost: 87%
Mošnov (Ostrava/Mo) 21.01.2020 10:00 UTC Zobrazit data
Místo: Mošnov
Teplota: 1 °C (pocitová: -10 °C)
Vítr: 10 m/s z(e) 240°
Počasí: oblačno
Dohlednost: 16 km
Zákl. oblačnosti: 4/8 360 m
Vlhkost: 87%
Náměšť nad Oslavou (Namest n/O) 21.01.2020 10:00 UTC Zobrazit data
Místo: Náměšť nad Oslavou
Teplota: -2 °C (pocitová: -8.5 °C)
Vítr: 2 m/s z(e) 270°
Počasí: zataženo
Dohlednost: 7 km
Zákl. oblačnosti: 8/8 180 m
Vlhkost: 93%
Pardubice (Pardubice) 21.01.2020 10:00 UTC Zobrazit data
Místo: Pardubice
Teplota: 1 °C (pocitová: -3.1 °C)
Vítr: 1 m/s z(e) 250°
Počasí: skorojasno
Dohlednost: 15 km
Zákl. oblačnosti: 2/8 6600 m
Vlhkost: 87%
Pec pod Sněžkou (Pec p.Snez) 21.01.2020 10:00 UTC Zobrazit data
Místo: Pec pod Sněžkou
Teplota: -1 °C (pocitová: -5.5 °C)
Vítr: 1 m/s z(e) 0°
Počasí: skorojasno
Dohlednost: 30 km
Zákl. oblačnosti: 1/8 9000 m
Vlhkost: 75%
Plzeň město - Mikulka (Plzen/Miku) 21.01.2020 10:00 UTC Zobrazit data
Místo: Plzeň město - Mikulka
Teplota: -1 °C (pocitová: -5.5 °C)
Vítr: 1 m/s z(e) 0°
Počasí: zataženo
Dohlednost: 6 km
Zákl. oblačnosti: 8/8 150 m
Vlhkost: 93%
Polom (Polom) 21.01.2020 10:00 UTC Zobrazit data
Místo: Polom
Teplota: -1 °C (pocitová: -8.7 °C)
Vítr: 3 m/s z(e) 200°
Počasí: skorojasno
Dohlednost: 10 km
Zákl. oblačnosti: 1/8 210 m
Vlhkost: 93%
Praha - Karlov (Praha/Kar) 21.01.2020 10:00 UTC Zobrazit data
Místo: Praha - Karlov
Teplota: -1 °C (pocitová: -8.7 °C)
Vítr: 3 m/s z(e) 200°
Počasí: zataženo
Dohlednost: 8 km
Zákl. oblačnosti: 7/8 90 m
Vlhkost: 93%
Praha - Kbely (Praha/Kbe) 21.01.2020 10:00 UTC Zobrazit data
Místo: Praha - Kbely
Teplota: -1 °C (pocitová: -9.8 °C)
Vítr: 4 m/s z(e) 200°
Počasí: zataženo
Dohlednost: 3000 m
Zákl. oblačnosti: 4/8 60 m
Vlhkost: 93%
Praha - Libuš (Praha/Lib) 21.01.2020 10:00 UTC Zobrazit data
Místo: Praha - Libuš
Teplota: -2 °C (pocitová: -10 °C)
Vítr: 3 m/s z(e) 190°
Počasí: zataženo
Dohlednost: 5 km
Zákl. oblačnosti: 8/8 90 m
Vlhkost: 100%
Praha - Ruzyně (Praha/Ru) 21.01.2020 10:00 UTC Zobrazit data
Místo: Praha - Ruzyně
Teplota: 0 °C (pocitová: -8.4 °C)
Vítr: 4 m/s z(e) 200°
Počasí: skorojasno
Dohlednost: 12 km
Zákl. oblačnosti: 1/8 7800 m
Vlhkost: 87%
Přibyslav (Pribyslav) 21.01.2020 09:00 UTC Zobrazit data
Místo: Přibyslav
Teplota: -3 °C (pocitová: -11.3 °C)
Vítr: 3 m/s z(e) 160°
Počasí: zataženo
Dohlednost: 1000 m
Zákl. oblačnosti: 8/8 90 m
Vlhkost: 100%
Přimda (Primda) 21.01.2020 10:00 UTC Zobrazit data
Místo: Přimda
Teplota: -2 °C (pocitová: -6.7 °C)
Vítr: 1 m/s z(e) 250°
Počasí: mlha
Dohlednost: 400 m
Zákl. oblačnosti: 1/8 30 m
Vlhkost: 93%
Šerák (Serak) 21.01.2020 10:00 UTC Zobrazit data
Místo: Šerák
Teplota: 1 °C (pocitová: -8.3 °C)
Vítr: 6 m/s z(e) 280°
Počasí: skorojasno
Dohlednost: 75 km
Zákl. oblačnosti: 1/8 9000 m
Vlhkost: 38%
Svratouch (Svratouch) 21.01.2020 10:00 UTC Zobrazit data
Místo: Svratouch
Teplota: -3 °C (pocitová: -11.3 °C)
Vítr: 3 m/s z(e) 220°
Počasí: zataženo
Dohlednost: 9 km
Zákl. oblačnosti: 2/8 7800 m
Vlhkost: 93%
Temelín (Temelin) 21.01.2020 10:00 UTC Zobrazit data
Místo: Temelín
Teplota: -2 °C (pocitová: -6.7 °C)
Vítr: 1 m/s z(e) 150°
Počasí: zataženo
Dohlednost: 12 km
Zákl. oblačnosti: 8/8 150 m
Vlhkost: 100%
Ústí nad Labem - Kočkov (Usti n/L) 21.01.2020 10:00 UTC Zobrazit data
Místo: Ústí nad Labem - Kočkov
Teplota: -2 °C (pocitová: -6.7 °C)
Vítr: 1 m/s z(e) 0°
Počasí: mlha
Dohlednost: 100 m
Zákl. oblačnosti: 3/8 30 m
Vlhkost: 100%
Ústí nad Orlicí (Usti n/O) 21.01.2020 10:00 UTC Zobrazit data
Místo: Ústí nad Orlicí
Teplota: -1 °C (pocitová: -7.2 °C)
Vítr: 2 m/s z(e) 160°
Počasí: zataženo
Dohlednost: 4500 m
Zákl. oblačnosti: 3/8 120 m
Vlhkost: 93%
Aalborg (EKYT) 21.01.2020 09:50 UTC Zobrazit METAR
EKYT 210950Z 26015KT 9999 BKN011 08/07 Q1029
Aarhus (EKAH) 28.12.2019 10:50 UTC Zobrazit METAR
EKAH 281050Z 19001KT 9999 BKN018 01/M01 Q1042
Abu Dhabi (OMAA) 21.01.2020 10:00 UTC Zobrazit METAR
OMAA 211000Z 33010KT CAVOK 23/07 Q1015 NOSIG
Abuja (DNAA) 21.01.2020 04:00 UTC Zobrazit METAR
DNAA 210400Z 06002KT 1400 HZ NSC 21/14 Q1013 NOSIG
Accra (DGAA) 21.01.2020 10:00 UTC Zobrazit METAR
DGAA 211000Z VRB04KT 2000 BR FEW020 30/23 Q1012 NOSIG
Addis Abeba (HAAB) 21.01.2020 10:00 UTC Zobrazit METAR
HAAB 211000Z 15008KT 9999 FEW025 21/07 Q1026
Agana (PGUM) 21.01.2020 09:54 UTC Zobrazit METAR
PGUM 210954Z 04014KT 3SM -RA BR SCT008 BKN012 OVC021 24/23 A2997 RMK AO2 RAB10 SLP142 P0004 T02440233
Ahe Island (NTHE) Zatím nenačteno  
Akureyri (BIAR) 21.01.2020 10:00 UTC Zobrazit METAR
BIAR 211000Z 09009KT 9999 BKN055 03/M05 Q1016 R01/090095 RMK WIND VADLAHEIDI 25829KT
Almaty (UAAA) Zatím nenačteno  
Amman (OJAM) 21.01.2020 10:00 UTC Zobrazit METAR
OJAM 211000Z 28009KT 5000 HZ BKN020 BKN030 06/02 Q1017 NOSIG
Amsterdam (EHAM) 21.01.2020 07:55 UTC Zobrazit METAR
EHAM 210755Z 18007KT 5000 BR NSC 00/M00 Q1042 BECMG 0400 FG BKN001
Antananarivo (FMMI) 21.01.2020 10:00 UTC Zobrazit METAR
FMMI 211000Z VRB03KT 6000 -RA SCT008 BKN020 20/19 Q1012 TEMPO 3500 RA
1 2 3 ... 9 Další
Reklama

Počasí na Váš email

Emaily jsou bez reklamy a bez spamu



Odhlásit newsletter

Reklama


Lunární kalendář

  • 24.01.
  • 02.02.
  • 09.02.
  • 15.02.



Reklama


Reklama
Povinné ručení
Reklama



Reklama